Clinton, Illinois
Current Conditions -  °F | °C
As of 12:35 AM on Monday 26 Jan 2015 (Local Time) from KAAA Reporting Station
Scattered Clouds Scattered Clouds  
Wind Chill: 19°   Ceiling: Unl
Heat Index: 26°   Visibility: 10mi
Dew Point: 20°   Wind: 6mph
Humidity: 81%   Direction: 340°NNW
Pressure: 30.01"   Gusts: NA
Location:  40.15°N, 88.96°W
Report Text: KAAA 260635Z AUTO 34005KT 10SM SCT019 M03/M06 A3001 RMK AO2 T10351064
Loading
Personal Weather Stations






























Interactive Weather Map New forecast layout! Learn more

10-Day Weather Forecast

Advertisements
Track Severe Weather on mobile